Time;durP1;ratioP1;P1;durP2;ratioP2;P2;SDS_P1;SDS_P2;PMS_P1;PMS_P2;Temp;Humidity;BMP_temperature;BMP_pressure;BME280_temperature;BME280_humidity;BME280_pressure;Samples;Min_cycle;Max_cycle;Signal;HPM_P1;HPM_P2
2022/07/22 00:01:27;;;;;;;11.82;10.73;;;19.50;99.90;;;;;;5002021;28;20450;-83
2022/07/22 00:03:52;;;;;;;11.15;10.15;;;19.50;99.90;;;;;;4990072;28;20520;-83
2022/07/22 00:06:18;;;;;;;11.55;10.35;;;19.50;99.90;;;;;;5010031;28;20030;-82
2022/07/22 00:08:44;;;;;;;11.63;10.52;;;19.50;99.90;;;;;;5009476;28;20038;-83
2022/07/22 00:11:10;;;;;;;11.32;10.13;;;19.50;99.90;;;;;;5009977;28;20030;-82
2022/07/22 00:13:35;;;;;;;11.15;10.07;;;19.50;99.90;;;;;;5009396;28;20026;-82
2022/07/22 00:16:01;;;;;;;11.80;10.60;;;19.50;99.90;;;;;;5003387;28;20107;-83
2022/07/22 00:18:27;;;;;;;11.40;10.25;;;19.50;99.90;;;;;;4995219;28;20126;-84
2022/07/22 00:20:52;;;;;;;11.02;10.02;;;19.50;99.90;;;;;;4981769;28;20023;-83
2022/07/22 00:23:18;;;;;;;11.63;10.57;;;19.50;99.90;;;;;;4967910;28;20054;-83
2022/07/22 00:25:44;;;;;;;14.48;11.98;;;19.50;99.90;;;;;;4969800;28;20023;-83
2022/07/22 00:28:10;;;;;;;11.48;10.38;;;19.50;99.90;;;;;;4985325;28;20031;-82
2022/07/22 00:30:35;;;;;;;11.55;10.35;;;19.50;99.90;;;;;;4988197;28;20031;-83
2022/07/22 00:33:01;;;;;;;11.55;10.40;;;19.50;99.90;;;;;;4987874;28;20027;-82
2022/07/22 00:35:26;;;;;;;11.30;10.30;;;19.40;99.90;;;;;;4988635;28;20027;-82
2022/07/22 00:37:52;;;;;;;11.00;9.90;;;19.40;99.90;;;;;;4990009;28;20023;-83
2022/07/22 00:40:18;;;;;;;11.02;9.93;;;19.40;99.90;;;;;;4988438;28;20065;-83
2022/07/22 00:42:44;;;;;;;11.32;10.13;;;19.40;99.90;;;;;;5010664;28;20057;-82
2022/07/22 00:45:10;;;;;;;11.25;10.05;;;19.40;99.90;;;;;;5016018;28;20030;-82
2022/07/22 00:47:36;;;;;;;11.30;10.23;;;19.40;99.90;;;;;;5013317;28;20105;-83
2022/07/22 00:50:04;;;;;;;11.13;10.00;;;19.30;99.90;;;;;;5007281;28;20036;-83
2022/07/22 00:52:30;;;;;;;10.65;9.65;;;19.30;99.90;;;;;;4988709;28;20108;-83
2022/07/22 00:54:58;;;;;;;10.52;9.52;;;19.30;99.90;;;;;;5005848;28;20026;-82
2022/07/22 00:57:24;;;;;;;11.45;10.35;;;;;;;;;;5006477;28;20033;-83
2022/07/22 00:59:49;;;;;;;11.52;10.32;;;19.20;99.90;;;;;;4987761;28;20046;-83
2022/07/22 01:02:15;;;;;;;10.98;9.88;;;19.20;99.90;;;;;;5005875;28;20058;-83
2022/07/22 01:04:40;;;;;;;11.07;10.07;;;19.20;99.90;;;;;;5008899;28;20018;-83
2022/07/22 01:07:06;;;;;;;11.05;9.95;;;19.10;99.90;;;;;;5008093;28;20030;-83
2022/07/22 01:09:32;;;;;;;10.25;9.27;;;19.10;99.90;;;;;;5014968;28;20030;-84
2022/07/22 01:11:58;;;;;;;10.85;9.85;;;19.10;99.90;;;;;;4996122;28;20434;-83
2022/07/22 01:14:24;;;;;;;9.80;8.82;;;19.10;99.90;;;;;;4995708;28;20030;-82
2022/07/22 01:16:50;;;;;;;11.60;10.40;;;19.10;99.90;;;;;;4995468;28;20031;-82
2022/07/22 01:19:16;;;;;;;10.80;9.80;;;19.10;99.90;;;;;;4978849;28;20019;-81
2022/07/22 01:21:42;;;;;;;9.60;8.75;;;19.10;99.90;;;;;;5011843;28;20038;-84
2022/07/22 01:24:08;;;;;;;10.23;9.27;;;19.10;99.90;;;;;;5016912;28;20070;-83
2022/07/22 01:26:33;;;;;;;9.95;8.95;;;19.00;99.90;;;;;;5017109;28;20049;-83
2022/07/22 01:29:00;;;;;;;10.15;9.23;;;19.00;99.90;;;;;;5016109;28;20034;-82
2022/07/22 01:31:25;;;;;;;10.65;9.68;;;19.00;99.90;;;;;;5006433;28;20073;-82
2022/07/22 01:33:51;;;;;;;10.40;9.00;;;19.00;99.90;;;;;;5005451;28;20443;-84
2022/07/22 01:36:17;;;;;;;9.68;8.88;;;19.00;99.90;;;;;;4983227;28;20029;-84
2022/07/22 01:38:43;;;;;;;9.60;8.70;;;19.00;99.90;;;;;;4981661;28;20172;-84
2022/07/22 01:41:08;;;;;;;9.63;8.73;;;19.00;99.90;;;;;;4998335;28;20175;-83
2022/07/22 01:43:34;;;;;;;9.48;8.57;;;19.00;99.90;;;;;;4998200;28;20018;-83
2022/07/22 01:46:00;;;;;;;9.65;8.75;;;18.90;99.90;;;;;;4998507;28;20038;-84
2022/07/22 01:48:25;;;;;;;9.75;8.85;;;18.90;99.90;;;;;;4998652;28;20058;-84
2022/07/22 01:50:51;;;;;;;10.68;9.57;;;18.90;99.90;;;;;;4981214;28;20080;-84
2022/07/22 01:53:17;;;;;;;9.38;8.55;;;18.90;99.90;;;;;;4997262;28;20479;-84
2022/07/22 01:55:43;;;;;;;9.48;8.57;;;18.90;99.90;;;;;;4998339;28;20030;-83
2022/07/22 01:58:09;;;;;;;10.18;9.18;;;18.90;99.90;;;;;;4997555;28;20038;-86
2022/07/22 02:00:35;;;;;;;9.23;8.38;;;18.90;99.90;;;;;;4979202;28;20026;-86
2022/07/22 02:03:01;;;;;;;9.65;8.65;;;18.90;99.90;;;;;;4997451;28;20029;-86
2022/07/22 02:05:26;;;;;;;11.07;9.65;;;18.80;99.90;;;;;;4980032;28;20018;-85
2022/07/22 02:07:52;;;;;;;9.57;8.68;;;18.80;99.90;;;;;;4998202;28;20023;-85
2022/07/22 02:10:18;;;;;;;9.75;8.85;;;18.80;99.90;;;;;;4996410;28;20036;-85
2022/07/22 02:12:44;;;;;;;10.43;9.43;;;18.80;99.90;;;;;;4996943;28;20026;-82
2022/07/22 02:15:10;;;;;;;10.55;9.65;;;18.70;99.90;;;;;;4997081;28;20038;-85
2022/07/22 02:17:36;;;;;;;10.30;9.25;;;18.70;99.90;;;;;;4998794;28;20022;-84
2022/07/22 02:20:03;;;;;;;11.45;10.13;;;18.70;99.90;;;;;;4987409;28;20056;-81
2022/07/22 02:22:29;;;;;;;10.95;9.93;;;18.70;99.90;;;;;;5010652;28;20035;-84
2022/07/22 02:24:54;;;;;;;10.93;9.85;;;18.70;99.90;;;;;;4996240;28;20026;-83
2022/07/22 02:27:20;;;;;;;10.70;9.60;;;18.70;99.90;;;;;;4995662;28;20034;-84
2022/07/22 02:29:46;;;;;;;11.40;9.65;;;18.70;99.90;;;;;;4995540;28;20026;-84
2022/07/22 02:32:11;;;;;;;9.90;8.90;;;18.70;99.90;;;;;;4995587;28;20045;-86
2022/07/22 02:34:37;;;;;;;10.57;9.57;;;18.70;99.90;;;;;;5006816;28;20077;-81
2022/07/22 02:37:03;;;;;;;10.15;9.23;;;18.70;99.90;;;;;;4997582;28;20166;-83
2022/07/22 02:39:29;;;;;;;10.55;9.45;;;18.70;99.90;;;;;;5003758;28;20025;-81
2022/07/22 02:41:54;;;;;;;9.40;8.60;;;18.70;99.90;;;;;;5014599;28;20025;-82
2022/07/22 02:44:20;;;;;;;10.18;9.18;;;18.70;99.90;;;;;;5013800;28;20041;-83
2022/07/22 02:46:46;;;;;;;9.48;8.60;;;18.70;99.90;;;;;;5014292;28;20026;-81
2022/07/22 02:49:12;;;;;;;9.85;8.90;;;18.70;99.90;;;;;;5005303;28;20443;-85
2022/07/22 02:51:37;;;;;;;9.32;8.43;;;18.70;99.90;;;;;;4999032;28;20026;-85
2022/07/22 02:54:03;;;;;;;9.50;8.60;;;18.70;99.90;;;;;;4998317;28;20023;-86
2022/07/22 02:56:29;;;;;;;9.55;8.65;;;18.70;99.90;;;;;;4998218;28;20023;-85
2022/07/22 02:58:55;;;;;;;10.25;9.25;;;18.70;99.90;;;;;;4996467;28;20127;-83
2022/07/22 03:01:20;;;;;;;10.15;9.15;;;18.60;99.90;;;;;;4996125;28;20082;-84
2022/07/22 03:03:46;;;;;;;10.40;9.40;;;18.60;99.90;;;;;;4995970;28;20019;-85
2022/07/22 03:06:12;;;;;;;11.52;10.25;;;18.60;99.90;;;;;;4998448;28;20031;-84
2022/07/22 03:08:38;;;;;;;11.77;10.30;;;18.50;99.90;;;;;;4998585;28;20026;-85
2022/07/22 03:11:04;;;;;;;12.55;9.70;;;18.50;99.90;;;;;;4997406;28;20364;-85
2022/07/22 03:13:30;;;;;;;10.30;9.40;;;18.50;99.90;;;;;;5001040;28;20044;-85
2022/07/22 03:15:56;;;;;;;10.32;9.32;;;18.50;99.90;;;;;;5004640;28;20030;-82
2022/07/22 03:18:22;;;;;;;10.43;9.32;;;18.50;99.90;;;;;;5005163;28;20057;-84
2022/07/22 03:20:47;;;;;;;10.35;9.35;;;18.50;99.90;;;;;;5011871;28;20023;-80
2022/07/22 03:23:13;;;;;;;16.83;10.32;;;18.50;99.90;;;;;;5018580;28;20019;-80
2022/07/22 03:25:39;;;;;;;10.75;9.65;;;18.50;99.90;;;;;;5009919;28;20066;-83
2022/07/22 03:28:06;;;;;;;10.65;9.65;;;18.50;99.90;;;;;;5005503;28;20018;-86
2022/07/22 03:30:32;;;;;;;11.45;10.23;;;18.50;99.90;;;;;;5016986;28;20026;-82
2022/07/22 03:32:57;;;;;;;10.05;9.13;;;18.50;99.90;;;;;;5017916;28;20026;-83
2022/07/22 03:35:23;;;;;;;10.05;9.02;;;18.50;99.90;;;;;;5006499;28;20034;-84
2022/07/22 03:37:49;;;;;;;9.50;8.63;;;18.50;99.90;;;;;;5009204;28;20034;-81
2022/07/22 03:40:15;;;;;;;9.48;8.57;;;18.50;99.90;;;;;;5002232;28;20093;-85
2022/07/22 03:42:41;;;;;;;9.90;8.93;;;18.50;99.90;;;;;;4999700;28;20455;-84
2022/07/22 03:45:07;;;;;;;9.05;8.15;;;18.50;99.90;;;;;;4982115;28;20026;-85
2022/07/22 03:47:33;;;;;;;10.38;9.15;;;18.50;99.90;;;;;;4999332;28;20343;-84
2022/07/22 03:49:58;;;;;;;10.73;8.95;;;18.50;99.90;;;;;;5000928;28;20036;-85
2022/07/22 03:52:25;;;;;;;9.60;8.70;;;18.50;99.90;;;;;;5000940;28;20053;-83
2022/07/22 03:54:51;;;;;;;10.40;9.32;;;18.50;99.90;;;;;;4999849;28;20057;-84
2022/07/22 03:57:17;;;;;;;10.75;9.65;;;18.50;99.90;;;;;;5001154;28;20026;-84
2022/07/22 03:59:42;;;;;;;10.65;9.55;;;18.60;99.90;;;;;;4985309;28;20130;-83
2022/07/22 04:02:08;;;;;;;9.45;8.50;;;18.50;99.90;;;;;;5013812;28;20034;-80
2022/07/22 04:04:34;;;;;;;10.38;8.60;;;18.60;99.90;;;;;;5018114;28;20026;-81
2022/07/22 04:06:59;;;;;;;9.93;9.02;;;18.60;99.90;;;;;;5018404;28;20079;-81
2022/07/22 04:09:25;;;;;;;9.15;8.35;;;18.70;99.90;;;;;;5017596;28;20090;-81
2022/07/22 04:11:51;;;;;;;9.68;8.68;;;18.60;99.90;;;;;;5016259;28;20037;-80
2022/07/22 04:14:17;;;;;;;11.48;10.10;;;18.70;99.90;;;;;;5017210;28;20050;-80
2022/07/22 04:16:46;;;;;;;10.77;9.70;;;18.70;99.90;;;;;;5016002;28;20084;-80
2022/07/22 04:19:12;;;;;;;11.57;10.52;;;18.70;99.90;;;;;;5016193;28;20033;-80
2022/07/22 04:21:38;;;;;;;9.73;8.80;;;18.70;99.90;;;;;;5013395;28;20026;-81
2022/07/22 04:24:04;;;;;;;10.15;9.10;;;18.80;99.90;;;;;;5016857;28;20034;-82
2022/07/22 04:26:30;;;;;;;11.45;10.32;;;18.80;99.90;;;;;;5013642;28;20054;-83
2022/07/22 04:28:56;;;;;;;10.10;9.18;;;18.80;99.90;;;;;;5004455;28;20039;-83
2022/07/22 04:31:22;;;;;;;10.88;9.82;;;18.80;99.90;;;;;;5003964;28;20076;-84
2022/07/22 04:33:47;;;;;;;10.35;9.35;;;18.90;99.90;;;;;;5002575;28;20030;-85
2022/07/22 04:36:13;;;;;;;9.90;9.00;;;18.90;99.90;;;;;;5002069;28;20026;-84
2022/07/22 04:38:39;;;;;;;10.40;9.15;;;18.90;99.90;;;;;;5003373;28;20040;-84
2022/07/22 04:41:05;;;;;;;9.82;8.93;;;19.00;99.90;;;;;;4990795;28;20077;-86
2022/07/22 04:43:31;;;;;;;9.93;8.93;;;19.10;99.90;;;;;;5000142;28;20160;-85
2022/07/22 04:45:57;;;;;;;10.43;9.43;;;19.10;99.90;;;;;;5001769;28;20022;-85
2022/07/22 04:48:22;;;;;;;9.45;8.55;;;19.10;99.90;;;;;;5002556;28;20095;-85
2022/07/22 04:50:48;;;;;;;9.00;8.20;;;19.20;99.90;;;;;;5004327;28;20093;-84
2022/07/22 04:53:14;;;;;;;8.73;7.93;;;19.30;99.90;;;;;;5007503;28;20023;-83
2022/07/22 04:55:40;;;;;;;9.75;8.85;;;19.30;99.90;;;;;;5014557;28;20041;-81
2022/07/22 04:58:05;;;;;;;9.35;8.55;;;19.40;99.90;;;;;;5014256;28;20038;-81
2022/07/22 05:00:31;;;;;;;12.27;10.95;;;19.50;99.90;;;;;;5014867;28;20014;-84
2022/07/22 05:02:57;;;;;;;11.73;10.35;;;19.60;99.90;;;;;;5014293;28;20064;-83
2022/07/22 05:05:23;;;;;;;11.57;10.48;;;19.70;99.90;;;;;;5001539;28;20041;-83
2022/07/22 05:07:49;;;;;;;10.68;9.68;;;19.80;99.90;;;;;;5001567;28;20018;-83
2022/07/22 05:10:16;;;;;;;10.32;9.25;;;19.90;99.90;;;;;;5005720;28;20093;-85
2022/07/22 05:12:42;;;;;;;12.07;10.30;;;20.00;99.90;;;;;;4987974;28;20027;-79
2022/07/22 05:15:08;;;;;;;12.38;11.07;;;20.10;99.90;;;;;;5002736;28;20045;-81
2022/07/22 05:17:34;;;;;;;10.73;9.73;;;20.30;99.90;;;;;;4978803;28;20023;-81
2022/07/22 05:20:03;;;;;;;9.77;8.82;;;21.30;99.90;;;;;;5003759;28;20037;-82
2022/07/22 05:22:28;;;;;;;8.75;7.95;;;23.80;97.50;;;;;;5002178;28;20346;-81
2022/07/22 05:24:54;;;;;;;7.72;7.03;;;26.60;90.80;;;;;;5016719;28;20030;-80
2022/07/22 05:27:20;;;;;;;7.90;7.10;;;28.10;79.20;;;;;;5016471;28;20061;-81
2022/07/22 05:29:45;;;;;;;8.02;7.32;;;28.70;73.80;;;;;;5016973;28;20049;-82
2022/07/22 05:32:11;;;;;;;7.07;6.47;;;29.00;69.40;;;;;;5016696;28;20019;-81
2022/07/22 05:34:36;;;;;;;7.95;7.25;;;29.90;66.90;;;;;;5017096;28;20099;-79
2022/07/22 05:37:02;;;;;;;7.00;6.40;;;29.20;64.50;;;;;;4999919;28;20010;-81
2022/07/22 05:39:28;;;;;;;7.95;7.25;;;28.10;66.50;;;;;;5011164;28;20456;-85
2022/07/22 05:41:56;;;;;;;7.18;6.47;;;28.20;68.50;;;;;;5000217;28;20522;-86
2022/07/22 05:44:22;;;;;;;8.60;7.15;;;29.80;66.20;;;;;;5005443;28;20029;-86
2022/07/22 05:46:48;;;;;;;7.32;6.68;;;31.60;61.40;;;;;;4973945;28;20079;-81
2022/07/22 05:49:16;;;;;;;7.38;6.78;;;32.90;58.40;;;;;;4995795;28;20044;-82
2022/07/22 05:51:42;;;;;;;7.65;7.05;;;34.20;55.10;;;;;;4997240;28;20015;-82
2022/07/22 05:54:08;;;;;;;7.45;6.75;;;34.80;53.30;;;;;;5014680;28;20025;-82
2022/07/22 05:56:33;;;;;;;7.30;6.60;;;35.60;51.00;;;;;;5015019;28;20045;-84
2022/07/22 05:58:59;;;;;;;7.00;6.43;;;35.90;49.70;;;;;;5014359;28;20042;-81
2022/07/22 06:01:25;;;;;;;8.10;7.40;;;36.30;49.30;;;;;;5014963;28;20018;-83
2022/07/22 06:03:51;;;;;;;7.00;6.38;;;36.80;48.00;;;;;;5014953;28;20034;-83
2022/07/22 06:06:16;;;;;;;7.03;6.53;;;37.10;47.20;;;;;;5013975;28;20082;-82
2022/07/22 06:08:42;;;;;;;7.45;6.75;;;37.30;46.40;;;;;;4990730;28;20030;-85
2022/07/22 06:11:08;;;;;;;7.05;6.40;;;37.40;45.90;;;;;;5001568;28;20055;-83
2022/07/22 06:13:33;;;;;;;7.45;6.85;;;37.30;45.80;;;;;;4986299;28;20022;-83
2022/07/22 06:15:59;;;;;;;6.60;6.10;;;37.60;45.40;;;;;;5013553;28;20027;-80
2022/07/22 06:18:25;;;;;;;7.93;7.25;;;37.90;44.90;;;;;;5015842;28;20066;-82
2022/07/22 06:20:51;;;;;;;7.70;6.88;;;37.90;44.60;;;;;;5015366;28;20033;-82
2022/07/22 06:23:17;;;;;;;7.22;6.53;;;37.80;44.60;;;;;;5007949;28;20022;-84
2022/07/22 06:25:43;;;;;;;9.27;8.38;;;37.70;44.60;;;;;;4998005;28;20023;-85
2022/07/22 06:28:10;;;;;;;8.90;7.68;;;37.60;44.10;;;;;;4996621;28;20033;-85
2022/07/22 06:30:36;;;;;;;8.00;7.25;;;37.40;44.80;;;;;;4997077;28;20034;-84
2022/07/22 06:33:02;;;;;;;8.40;7.60;;;37.00;44.90;;;;;;4998515;28;20038;-86
2022/07/22 06:35:28;;;;;;;8.80;8.00;;;37.00;44.80;;;;;;4998226;28;20034;-87
2022/07/22 06:37:54;;;;;;;7.57;6.97;;;36.70;45.30;;;;;;4977472;28;20758;-87
2022/07/22 06:40:20;;;;;;;8.10;7.40;;;37.20;44.70;;;;;;5003500;28;20026;-86
2022/07/22 06:42:45;;;;;;;7.25;6.65;;;37.70;44.20;;;;;;5001330;28;20033;-90
2022/07/22 06:45:11;;;;;;;7.43;6.82;;;38.10;43.80;;;;;;4984986;28;20029;-86
2022/07/22 06:47:37;;;;;;;7.35;6.75;;;38.50;43.70;;;;;;5003081;28;20042;-85
2022/07/22 06:50:05;;;;;;;7.20;6.60;;;38.80;43.50;;;;;;5003677;28;20431;-85
2022/07/22 06:52:30;;;;;;;6.90;6.30;;;39.10;42.80;;;;;;5002954;28;20026;-84
2022/07/22 06:54:56;;;;;;;7.60;6.88;;;39.10;42.40;;;;;;5008286;28;20033;-82
2022/07/22 06:57:25;;;;;;;7.65;6.95;;;39.20;42.70;;;;;;5009206;28;20038;-85
2022/07/22 06:59:51;;;;;;;8.38;7.70;;;38.90;41.80;;;;;;4984473;28;20038;-84
2022/07/22 07:02:17;;;;;;;7.85;7.20;;;38.90;42.00;;;;;;5002838;28;20038;-85
2022/07/22 07:04:42;;;;;;;7.47;6.88;;;38.80;42.40;;;;;;4987127;28;20034;-85
2022/07/22 07:07:08;;;;;;;9.70;7.35;;;38.40;42.40;;;;;;4991938;28;20094;-85
2022/07/22 07:09:35;;;;;;;7.10;6.57;;;38.30;42.50;;;;;;5013034;28;20022;-86
2022/07/22 07:12:01;;;;;;;8.65;7.85;;;38.60;42.10;;;;;;5014687;28;20057;-86
2022/07/22 07:14:27;;;;;;;8.45;7.60;;;38.40;41.70;;;;;;5010370;28;20118;-87
2022/07/22 07:16:52;;;;;;;8.85;8.05;;;37.20;41.90;;;;;;5015681;28;20042;-86
2022/07/22 07:19:19;;;;;;;9.02;7.82;;;34.30;44.10;;;;;;5012488;28;20036;-87
2022/07/22 07:21:45;;;;;;;11.75;8.52;;;31.70;48.70;;;;;;5007943;28;20030;-82
2022/07/22 07:24:11;;;;;;;9.43;7.60;;;29.60;52.40;;;;;;4999226;28;20073;-86
2022/07/22 07:26:37;;;;;;;8.95;8.15;;;28.20;55.70;;;;;;4996187;28;20116;-84
2022/07/22 07:29:03;;;;;;;9.20;7.80;;;27.30;57.90;;;;;;5012936;28;20539;-84
2022/07/22 07:31:30;;;;;;;10.07;8.13;;;26.60;59.40;;;;;;5010345;28;20245;-84
2022/07/22 07:33:56;;;;;;;10.13;9.02;;;26.20;61.80;;;;;;5009058;28;20140;-86
2022/07/22 07:36:22;;;;;;;11.68;9.45;;;25.90;63.10;;;;;;5008413;28;20042;-84
2022/07/22 07:38:48;;;;;;;9.75;8.73;;;25.70;63.30;;;;;;5015990;28;20018;-84
2022/07/22 07:41:14;;;;;;;9.55;8.50;;;25.50;62.20;;;;;;5002637;28;20080;-83
2022/07/22 07:43:40;;;;;;;9.70;8.15;;;25.30;63.40;;;;;;5004927;28;20062;-85
2022/07/22 07:46:06;;;;;;;9.73;8.82;;;25.20;64.10;;;;;;5003341;28;20037;-85
2022/07/22 07:48:31;;;;;;;9.85;8.90;;;25.20;64.50;;;;;;5003897;28;20034;-85
2022/07/22 07:50:57;;;;;;;8.93;8.13;;;25.30;65.00;;;;;;5003590;28;20115;-83
2022/07/22 07:53:23;;;;;;;9.68;8.70;;;25.30;65.10;;;;;;5003751;28;20105;-84
2022/07/22 07:55:49;;;;;;;9.93;8.90;;;25.30;65.10;;;;;;4986046;28;20098;-84
2022/07/22 07:58:15;;;;;;;8.95;7.93;;;25.40;64.90;;;;;;4997984;28;20438;-84
2022/07/22 08:00:42;;;;;;;8.65;7.82;;;25.40;65.00;;;;;;5019637;23;20034;-83
2022/07/22 08:03:08;;;;;;;12.98;8.75;;;25.40;65.10;;;;;;4984310;28;20022;-85
2022/07/22 08:05:34;;;;;;;10.73;9.05;;;25.50;65.10;;;;;;4984686;28;20114;-82
2022/07/22 08:08:00;;;;;;;12.20;9.38;;;25.40;65.00;;;;;;4999169;28;20065;-83
2022/07/22 08:10:26;;;;;;;11.90;8.52;;;25.40;65.20;;;;;;5003787;28;20062;-84
2022/07/22 08:12:53;;;;;;;10.05;8.55;;;25.50;65.10;;;;;;5003421;28;20023;-84
2022/07/22 08:15:20;;;;;;;10.63;8.75;;;25.50;65.20;;;;;;5003690;28;20022;-83
2022/07/22 08:17:46;;;;;;;8.98;8.10;;;25.60;64.70;;;;;;5003128;28;20030;-83
2022/07/22 08:20:12;;;;;;;11.07;9.65;;;25.70;64.60;;;;;;5002980;28;20506;-84
2022/07/22 08:22:38;;;;;;;9.38;8.43;;;25.90;63.90;;;;;;5004049;28;20040;-81
2022/07/22 08:25:04;;;;;;;10.55;8.77;;;26.00;63.90;;;;;;5005475;28;20030;-84
2022/07/22 08:27:30;;;;;;;9.80;8.73;;;26.00;63.10;;;;;;5007118;28;20030;-84
2022/07/22 08:29:55;;;;;;;11.73;9.18;;;26.10;63.90;;;;;;5005096;28;20125;-84
2022/07/22 08:32:21;;;;;;;11.15;8.93;;;26.20;62.40;;;;;;5007083;28;20026;-83
2022/07/22 08:34:47;;;;;;;9.50;8.35;;;26.30;62.00;;;;;;5010858;28;20129;-83
2022/07/22 08:37:13;;;;;;;10.80;8.82;;;26.40;61.30;;;;;;5009698;28;20027;-82
2022/07/22 08:39:39;;;;;;;10.77;8.85;;;26.50;61.30;;;;;;5010433;28;20038;-84
2022/07/22 08:42:05;;;;;;;9.32;8.18;;;26.60;61.30;;;;;;5012053;28;20030;-83
2022/07/22 08:44:32;;;;;;;9.50;7.32;;;26.70;61.70;;;;;;4991452;28;20142;-82
2022/07/22 08:46:58;;;;;;;10.00;8.65;;;26.80;61.30;;;;;;5005069;28;20041;-81
2022/07/22 08:49:24;;;;;;;8.30;7.55;;;26.90;59.90;;;;;;4991007;28;20022;-84
2022/07/22 08:51:50;;;;;;;8.32;7.53;;;27.00;59.00;;;;;;4985901;28;20099;-83
2022/07/22 08:54:15;;;;;;;9.45;8.02;;;27.10;58.60;;;;;;4984826;28;20027;-84
2022/07/22 08:56:42;;;;;;;11.05;7.85;;;27.20;57.20;;;;;;4985259;28;20026;-85
2022/07/22 08:59:08;;;;;;;13.75;8.43;;;27.30;57.30;;;;;;4999347;28;20029;-82
2022/07/22 09:01:34;;;;;;;8.38;7.57;;;27.30;56.80;;;;;;5005044;28;20065;-83
2022/07/22 09:04:00;;;;;;;7.55;6.75;;;27.40;56.50;;;;;;5003799;28;20030;-81
2022/07/22 09:06:33;;;;;;;8.30;7.50;;;27.40;57.50;;;;;;5006188;28;20054;-84
2022/07/22 09:09:04;;;;;;;8.45;7.55;;;27.60;56.90;;;;;;4992053;28;20122;-81
2022/07/22 09:11:31;;;;;;;8.07;7.28;;;27.80;56.20;;;;;;5018268;28;20029;-81
2022/07/22 09:13:58;;;;;;;11.15;7.80;;;27.90;55.80;;;;;;5009000;28;20057;-85
2022/07/22 09:16:44;;;;;;;7.80;7.05;;;28.00;55.40;;;;;;4988460;28;20364;-84
2022/07/22 09:19:10;;;;;;;12.07;7.50;;;28.00;55.20;;;;;;5003773;28;20026;-83
2022/07/22 09:21:38;;;;;;;6.72;6.18;;;28.10;54.30;;;;;;5003870;28;20498;-82
2022/07/22 09:24:05;;;;;;;7.45;6.60;;;28.10;54.50;;;;;;5003872;28;20090;-83
2022/07/22 09:26:33;;;;;;;8.27;6.60;;;28.30;54.50;;;;;;5003809;28;20030;-84
2022/07/22 09:28:59;;;;;;;6.28;5.68;;;28.40;52.40;;;;;;5003379;28;20032;-83
2022/07/22 09:31:32;;;;;;;7.18;6.57;;;28.30;52.00;;;;;;4985816;28;20498;-84
2022/07/22 09:33:58;;;;;;;7.47;6.78;;;28.30;52.90;;;;;;5003219;28;20028;-83
2022/07/22 09:36:24;;;;;;;8.77;7.18;;;28.50;53.20;;;;;;4985904;28;20535;-84
2022/07/22 09:38:50;;;;;;;8.57;7.47;;;28.60;52.80;;;;;;5002501;28;20022;-83
2022/07/22 09:41:15;;;;;;;8.38;7.00;;;28.70;52.30;;;;;;5002480;28;20109;-83
2022/07/22 09:43:41;;;;;;;8.38;7.18;;;28.70;51.10;;;;;;5001225;28;20053;-83
2022/07/22 09:46:08;;;;;;;10.02;7.38;;;28.70;52.30;;;;;;5002626;28;20027;-82
2022/07/22 09:48:34;;;;;;;7.10;6.43;;;28.80;51.90;;;;;;5001078;28;20102;-83
2022/07/22 09:50:59;;;;;;;8.73;6.63;;;28.80;52.40;;;;;;4995224;28;20026;-83
2022/07/22 09:53:30;;;;;;;7.05;6.35;;;28.90;51.20;;;;;;5002571;28;20391;-82
2022/07/22 09:55:57;;;;;;;9.30;6.83;;;28.90;51.10;;;;;;5003465;28;20041;-83
2022/07/22 09:58:24;;;;;;;7.75;5.78;;;29.10;50.20;;;;;;5003553;28;20027;-83
2022/07/22 10:00:52;;;;;;;7.90;7.10;;;29.10;50.40;;;;;;5006702;28;20454;-83
2022/07/22 10:03:30;;;;;;;6.80;6.10;;;29.20;51.10;;;;;;5006201;28;20026;-84
2022/07/22 10:05:57;;;;;;;10.02;6.20;;;29.50;50.50;;;;;;4991989;28;20034;-83
2022/07/22 10:08:26;;;;;;;7.22;6.53;;;29.60;49.70;;;;;;5008327;28;20034;-84
2022/07/22 10:10:52;;;;;;;7.93;6.65;;;29.70;49.80;;;;;;5002127;28;20056;-84
2022/07/22 10:13:19;;;;;;;7.68;6.97;;;29.70;49.90;;;;;;5002372;28;20044;-83
2022/07/22 10:15:46;;;;;;;7.68;6.63;;;29.90;49.50;;;;;;5002131;28;20098;-82
2022/07/22 10:18:29;;;;;;;7.95;6.85;;;29.90;48.90;;;;;;5003038;28;20019;-83
2022/07/22 10:21:05;;;;;;;7.80;7.10;;;29.90;49.60;;;;;;5003393;28;20094;-83
2022/07/22 10:23:31;;;;;;;7.50;6.38;;;29.90;50.10;;;;;;4984769;28;20026;-84
2022/07/22 10:25:59;;;;;;;7.38;6.57;;;30.00;49.80;;;;;;5002305;28;20037;-83
2022/07/22 10:28:28;;;;;;;7.32;6.63;;;30.00;49.50;;;;;;5010943;28;20046;-83
2022/07/22 10:31:24;;;;;;;9.68;6.43;;;30.10;49.30;;;;;;4987615;28;20026;-83
2022/07/22 10:33:56;;;;;;;9.45;6.60;;;30.20;49.20;;;;;;4989451;28;20102;-83
2022/07/22 10:36:32;;;;;;;7.53;6.70;;;30.40;48.90;;;;;;4989551;28;20022;-84
2022/07/22 10:39:04;;;;;;;7.28;6.68;;;30.50;49.30;;;;;;5006151;28;20038;-83
2022/07/22 10:41:48;;;;;;;7.47;6.78;;;30.60;49.10;;;;;;5004768;28;20050;-83
2022/07/22 10:44:34;;;;;;;7.53;6.90;;;30.70;48.80;;;;;;4987915;28;20033;-82
2022/07/22 10:47:02;;;;;;;10.00;6.53;;;30.70;49.00;;;;;;5000106;28;20018;-82
2022/07/22 10:49:28;;;;;;;7.63;6.50;;;30.70;48.90;;;;;;5008957;28;20021;-83
2022/07/22 10:52:22;;;;;;;8.30;7.45;;;30.80;48.70;;;;;;5011766;28;20484;-83
2022/07/22 10:55:16;;;;;;;9.90;7.28;;;30.80;48.50;;;;;;4994687;28;20247;-83
2022/07/22 10:57:42;;;;;;;9.32;7.15;;;30.90;48.40;;;;;;4990023;28;20033;-84
2022/07/22 11:00:08;;;;;;;7.00;6.40;;;31.00;48.50;;;;;;5003109;28;22293;-84
2022/07/22 11:02:36;;;;;;;8.07;7.38;;;31.10;48.70;;;;;;4987649;28;20050;-84
2022/07/22 11:05:03;;;;;;;7.80;6.90;;;31.20;48.10;;;;;;4985774;28;20026;-84
2022/07/22 11:07:30;;;;;;;10.77;6.40;;;31.10;48.30;;;;;;5006875;28;20032;-82
2022/07/22 11:10:19;;;;;;;8.90;7.10;;;31.10;48.50;;;;;;5016352;28;20015;-83
2022/07/22 11:12:47;;;;;;;11.48;7.03;;;31.10;48.50;;;;;;5002922;28;20043;-84
2022/07/22 11:15:12;;;;;;;8.95;6.20;;;31.20;48.40;;;;;;5003189;28;20033;-84
2022/07/22 11:17:39;;;;;;;7.13;6.43;;;31.20;48.70;;;;;;5003510;28;20030;-84
2022/07/22 11:20:08;;;;;;;9.52;7.53;;;31.20;48.60;;;;;;4992204;28;20037;-84
2022/07/22 11:22:33;;;;;;;7.97;6.30;;;31.30;48.50;;;;;;4988649;28;20025;-82
2022/07/22 11:25:07;;;;;;;9.68;6.63;;;31.30;48.30;;;;;;5018344;28;20022;-82
2022/07/22 11:27:33;;;;;;;6.97;6.40;;;31.40;48.20;;;;;;5020072;28;20106;-83
2022/07/22 11:29:59;;;;;;;8.45;6.50;;;31.40;47.50;;;;;;5003041;28;20015;-82
2022/07/22 11:32:31;;;;;;;7.07;6.53;;;31.50;47.80;;;;;;5013391;28;20023;-84
2022/07/22 11:34:58;;;;;;;6.93;6.30;;;31.30;47.30;;;;;;5010890;28;20072;-82
2022/07/22 11:37:25;;;;;;;8.60;6.50;;;31.40;48.00;;;;;;4992411;28;20127;-81
2022/07/22 11:39:58;;;;;;;8.85;6.60;;;31.40;47.30;;;;;;5000842;28;20590;-81
2022/07/22 11:42:25;;;;;;;7.30;6.32;;;31.20;47.30;;;;;;5020901;28;20038;-80
2022/07/22 11:44:51;;;;;;;7.88;6.93;;;31.20;47.80;;;;;;5027101;28;20034;-81
2022/07/22 11:47:16;;;;;;;9.65;6.85;;;31.20;48.10;;;;;;5033313;28;20120;-79
2022/07/22 11:49:48;;;;;;;7.45;6.45;;;31.30;47.40;;;;;;5012555;28;20038;-80
2022/07/22 11:52:14;;;;;;;6.82;6.18;;;31.50;47.70;;;;;;5024777;28;20083;-81
2022/07/22 11:54:41;;;;;;;6.68;6.07;;;31.60;46.90;;;;;;5027094;28;20665;-81
2022/07/22 11:57:07;;;;;;;6.75;6.05;;;31.90;47.20;;;;;;5014544;28;20351;-81
2022/07/22 11:59:34;;;;;;;7.03;6.40;;;32.00;46.10;;;;;;5012985;28;20086;-80
2022/07/22 12:02:01;;;;;;;6.82;6.22;;;31.80;46.60;;;;;;4995135;28;20038;-81
2022/07/22 12:04:28;;;;;;;6.68;6.07;;;31.70;47.10;;;;;;4989135;28;20034;-82
2022/07/22 12:06:54;;;;;;;7.53;6.82;;;31.70;47.20;;;;;;5004262;28;20115;-81
2022/07/22 12:09:24;;;;;;;7.50;6.70;;;31.80;47.20;;;;;;5000166;28;20054;-81
2022/07/22 12:11:52;;;;;;;8.43;6.55;;;31.80;47.00;;;;;;4996236;28;20030;-82
2022/07/22 12:14:24;;;;;;;7.28;6.40;;;31.70;47.10;;;;;;5002544;28;20418;-81
2022/07/22 12:16:57;;;;;;;6.85;6.15;;;31.70;47.30;;;;;;5000427;28;20026;-81
2022/07/22 12:19:23;;;;;;;7.10;6.45;;;31.70;47.20;;;;;;5011530;28;20030;-82
2022/07/22 12:22:00;;;;;;;11.50;6.45;;;31.80;47.50;;;;;;5007092;28;20037;-82
2022/07/22 12:24:34;;;;;;;7.45;6.75;;;31.80;46.90;;;;;;5025171;28;20026;-83
2022/07/22 12:27:20;;;;;;;7.78;6.93;;;31.90;46.90;;;;;;5004796;28;20029;-83
2022/07/22 12:29:47;;;;;;;8.18;7.07;;;32.10;47.10;;;;;;5025103;28;20090;-84
2022/07/22 12:32:17;;;;;;;8.00;6.90;;;32.20;47.00;;;;;;5009686;28;20030;-83
2022/07/22 12:34:56;;;;;;;8.10;6.65;;;32.10;46.80;;;;;;5003025;28;20040;-82
2022/07/22 12:37:23;;;;;;;7.95;6.70;;;32.00;47.20;;;;;;4984301;28;20086;-83
2022/07/22 12:40:06;;;;;;;7.13;6.43;;;32.00;47.40;;;;;;4995883;28;20023;-83
2022/07/22 12:42:37;;;;;;;9.85;6.88;;;32.30;47.30;;;;;;4983345;28;20058;-82